sensor_id;sensor_type;location;lat;lon;timestamp;noise_LAeq;noise_LA_min;noise_LA_max;noise_LA01;noise_LA95
37162;Laerm;68342;52.598;13.450;2023-10-19T00:02:05;41.72;35.24;51.64;;
37162;Laerm;68342;52.598;13.450;2023-10-19T00:04:30;40.65;34.15;50.27;;
37162;Laerm;68342;52.598;13.450;2023-10-19T00:06:57;39.81;35.23;51.54;;
37162;Laerm;68342;52.598;13.450;2023-10-19T00:09:22;43.09;35.50;53.63;;
37162;Laerm;68342;52.598;13.450;2023-10-19T00:11:48;40.65;35.18;51.63;;
37162;Laerm;68342;52.598;13.450;2023-10-19T00:14:16;40.05;33.30;51.59;;
37162;Laerm;68342;52.598;13.450;2023-10-19T00:16:45;39.19;32.46;56.34;;
37162;Laerm;68342;52.598;13.450;2023-10-19T00:19:25;38.81;33.45;53.52;;
37162;Laerm;68342;52.598;13.450;2023-10-19T00:21:53;40.72;34.11;54.43;;
37162;Laerm;68342;52.598;13.450;2023-10-19T00:24:20;40.28;33.36;53.25;;
37162;Laerm;68342;52.598;13.450;2023-10-19T00:26:49;40.62;34.56;54.33;;
37162;Laerm;68342;52.598;13.450;2023-10-19T01:17:31;39.24;33.75;52.55;;
37162;Laerm;68342;52.598;13.450;2023-10-19T01:19:59;42.12;35.59;54.08;;
37162;Laerm;68342;52.598;13.450;2023-10-19T01:22:24;41.81;36.22;54.92;;
37162;Laerm;68342;52.598;13.450;2023-10-19T01:24:54;42.73;35.62;53.50;;
37162;Laerm;68342;52.598;13.450;2023-10-19T01:27:20;41.15;34.74;50.55;;
37162;Laerm;68342;52.598;13.450;2023-10-19T01:29:46;40.96;33.22;52.65;;
37162;Laerm;68342;52.598;13.450;2023-10-19T01:32:11;45.70;36.30;56.12;;
37162;Laerm;68342;52.598;13.450;2023-10-19T01:34:40;44.00;34.45;55.61;;
37162;Laerm;68342;52.598;13.450;2023-10-19T01:37:05;47.95;37.06;57.32;;
37162;Laerm;68342;52.598;13.450;2023-10-19T01:39:31;40.89;34.53;50.48;;
37162;Laerm;68342;52.598;13.450;2023-10-19T01:41:56;40.15;34.37;49.90;;
37162;Laerm;68342;52.598;13.450;2023-10-19T01:44:22;40.43;33.84;57.57;;
37162;Laerm;68342;52.598;13.450;2023-10-19T01:46:49;38.27;32.99;52.62;;
37162;Laerm;68342;52.598;13.450;2023-10-19T01:49:14;42.12;35.43;51.05;;
37162;Laerm;68342;52.598;13.450;2023-10-19T01:51:51;41.34;35.75;50.83;;
37162;Laerm;68342;52.598;13.450;2023-10-19T01:54:16;42.10;34.66;52.29;;
37162;Laerm;68342;52.598;13.450;2023-10-19T01:56:43;40.35;35.82;50.06;;
37162;Laerm;68342;52.598;13.450;2023-10-19T01:59:08;39.50;34.35;53.73;;
37162;Laerm;68342;52.598;13.450;2023-10-19T02:01:34;39.64;33.92;50.51;;
37162;Laerm;68342;52.598;13.450;2023-10-19T02:04:03;40.17;34.19;50.98;;
37162;Laerm;68342;52.598;13.450;2023-10-19T02:06:30;39.72;34.67;50.96;;
37162;Laerm;68342;52.598;13.450;2023-10-19T02:08:59;39.01;33.57;53.62;;
37162;Laerm;68342;52.598;13.450;2023-10-19T02:11:26;39.88;34.47;55.89;;
37162;Laerm;68342;52.598;13.450;2023-10-19T02:13:54;43.58;35.08;54.14;;
37162;Laerm;68342;52.598;13.450;2023-10-19T02:16:21;39.89;34.53;51.54;;
37162;Laerm;68342;52.598;13.450;2023-10-19T02:18:50;39.86;34.39;51.10;;
37162;Laerm;68342;52.598;13.450;2023-10-19T02:21:18;39.71;34.18;53.38;;
37162;Laerm;68342;52.598;13.450;2023-10-19T02:23:56;39.38;34.41;51.43;;
37162;Laerm;68342;52.598;13.450;2023-10-19T02:26:22;39.00;33.80;48.56;;
37162;Laerm;68342;52.598;13.450;2023-10-19T02:28:50;39.82;33.84;53.18;;
37162;Laerm;68342;52.598;13.450;2023-10-19T02:31:16;41.16;34.76;52.78;;
37162;Laerm;68342;52.598;13.450;2023-10-19T02:33:45;39.63;34.98;51.77;;
37162;Laerm;68342;52.598;13.450;2023-10-19T02:36:28;39.84;34.07;51.69;;
37162;Laerm;68342;52.598;13.450;2023-10-19T02:38:58;41.27;35.81;51.22;;
37162;Laerm;68342;52.598;13.450;2023-10-19T02:41:25;42.52;36.30;56.92;;
37162;Laerm;68342;52.598;13.450;2023-10-19T02:43:55;39.63;35.06;51.45;;
37162;Laerm;68342;52.598;13.450;2023-10-19T02:46:28;39.75;35.04;49.95;;
37162;Laerm;68342;52.598;13.450;2023-10-19T02:48:54;40.08;35.10;58.56;;
37162;Laerm;68342;52.598;13.450;2023-10-19T02:51:19;39.12;34.27;48.75;;
37162;Laerm;68342;52.598;13.450;2023-10-19T02:53:45;39.28;34.50;50.83;;
37162;Laerm;68342;52.598;13.450;2023-10-19T02:56:11;40.47;35.76;54.52;;
37162;Laerm;68342;52.598;13.450;2023-10-19T02:58:40;40.66;35.32;50.37;;
37162;Laerm;68342;52.598;13.450;2023-10-19T03:01:14;41.42;35.75;52.78;;
37162;Laerm;68342;52.598;13.450;2023-10-19T03:03:42;40.96;35.37;54.10;;
37162;Laerm;68342;52.598;13.450;2023-10-19T03:06:08;42.59;35.57;55.21;;
37162;Laerm;68342;52.598;13.450;2023-10-19T03:08:35;41.82;35.10;52.53;;
37162;Laerm;68342;52.598;13.450;2023-10-19T03:11:00;41.92;35.94;51.35;;
37162;Laerm;68342;52.598;13.450;2023-10-19T03:13:29;40.01;35.11;51.11;;
37162;Laerm;68342;52.598;13.450;2023-10-19T03:15:55;39.99;35.61;49.98;;
37162;Laerm;68342;52.598;13.450;2023-10-19T03:18:20;41.23;35.87;51.59;;
37162;Laerm;68342;52.598;13.450;2023-10-19T03:20:45;41.56;37.22;56.33;;
37162;Laerm;68342;52.598;13.450;2023-10-19T03:23:10;41.63;37.25;50.46;;
37162;Laerm;68342;52.598;13.450;2023-10-19T03:25:39;40.51;35.52;51.45;;
37162;Laerm;68342;52.598;13.450;2023-10-19T03:28:42;41.05;36.54;51.47;;
37162;Laerm;68342;52.598;13.450;2023-10-19T03:31:09;41.47;37.63;49.94;;
37162;Laerm;68342;52.598;13.450;2023-10-19T03:33:42;41.61;36.70;50.84;;
37162;Laerm;68342;52.598;13.450;2023-10-19T03:36:09;40.63;37.05;51.32;;
37162;Laerm;68342;52.598;13.450;2023-10-19T03:38:38;41.32;36.99;50.66;;
37162;Laerm;68342;52.598;13.450;2023-10-19T03:41:05;40.32;36.28;52.24;;
37162;Laerm;68342;52.598;13.450;2023-10-19T03:43:32;42.19;37.36;49.73;;
37162;Laerm;68342;52.598;13.450;2023-10-19T03:45:58;42.97;37.20;53.88;;
37162;Laerm;68342;52.598;13.450;2023-10-19T03:48:24;41.60;37.18;51.12;;
37162;Laerm;68342;52.598;13.450;2023-10-19T03:50:55;41.69;37.38;51.09;;
37162;Laerm;68342;52.598;13.450;2023-10-19T03:53:21;41.74;37.68;52.11;;
37162;Laerm;68342;52.598;13.450;2023-10-19T03:55:47;42.43;37.30;54.21;;
37162;Laerm;68342;52.598;13.450;2023-10-19T03:58:13;41.89;37.37;50.88;;
37162;Laerm;68342;52.598;13.450;2023-10-19T04:00:38;42.56;37.99;53.60;;
37162;Laerm;68342;52.598;13.450;2023-10-19T04:03:03;41.49;36.98;50.70;;
37162;Laerm;68342;52.598;13.450;2023-10-19T04:05:30;42.15;37.58;61.26;;
37162;Laerm;68342;52.598;13.450;2023-10-19T04:07:56;42.39;38.28;49.91;;
37162;Laerm;68342;52.598;13.450;2023-10-19T04:10:22;41.78;37.59;53.63;;
37162;Laerm;68342;52.598;13.450;2023-10-19T04:13:00;42.33;37.71;51.98;;
37162;Laerm;68342;52.598;13.450;2023-10-19T04:15:26;42.04;37.44;50.27;;
37162;Laerm;68342;52.598;13.450;2023-10-19T04:17:51;44.42;38.75;52.65;;
37162;Laerm;68342;52.598;13.450;2023-10-19T04:20:18;42.36;38.19;53.78;;
37162;Laerm;68342;52.598;13.450;2023-10-19T04:22:44;44.17;39.40;52.38;;
37162;Laerm;68342;52.598;13.450;2023-10-19T04:25:09;42.99;39.12;52.04;;
37162;Laerm;68342;52.598;13.450;2023-10-19T04:27:37;43.15;38.29;53.42;;
37162;Laerm;68342;52.598;13.450;2023-10-19T04:30:03;42.63;38.68;54.37;;
37162;Laerm;68342;52.598;13.450;2023-10-19T04:32:28;43.31;38.61;52.09;;
37162;Laerm;68342;52.598;13.450;2023-10-19T04:34:53;44.00;38.60;54.00;;
37162;Laerm;68342;52.598;13.450;2023-10-19T04:37:19;43.90;38.69;54.22;;
37162;Laerm;68342;52.598;13.450;2023-10-19T04:39:45;42.95;37.69;53.33;;
37162;Laerm;68342;52.598;13.450;2023-10-19T04:42:10;43.16;39.32;51.60;;
37162;Laerm;68342;52.598;13.450;2023-10-19T04:44:36;44.35;38.70;53.50;;
37162;Laerm;68342;52.598;13.450;2023-10-19T04:47:01;46.08;40.15;54.37;;
37162;Laerm;68342;52.598;13.450;2023-10-19T04:49:26;43.79;38.49;54.14;;
37162;Laerm;68342;52.598;13.450;2023-10-19T04:51:53;43.14;38.90;50.22;;
37162;Laerm;68342;52.598;13.450;2023-10-19T04:54:18;44.24;39.25;51.01;;
37162;Laerm;68342;52.598;13.450;2023-10-19T04:56:43;42.51;39.32;54.29;;
37162;Laerm;68342;52.598;13.450;2023-10-19T04:59:09;48.66;38.78;62.25;;
37162;Laerm;68342;52.598;13.450;2023-10-19T05:01:44;43.65;38.67;51.73;;
37162;Laerm;68342;52.598;13.450;2023-10-19T05:04:30;43.04;38.52;54.58;;
37162;Laerm;68342;52.598;13.450;2023-10-19T05:07:00;42.70;38.66;53.47;;
37162;Laerm;68342;52.598;13.450;2023-10-19T05:09:26;43.59;39.24;57.16;;
37162;Laerm;68342;52.598;13.450;2023-10-19T05:11:51;42.96;38.26;55.09;;
37162;Laerm;68342;52.598;13.450;2023-10-19T05:14:17;43.13;38.99;51.95;;
37162;Laerm;68342;52.598;13.450;2023-10-19T05:16:42;43.56;38.87;50.63;;
37162;Laerm;68342;52.598;13.450;2023-10-19T05:19:09;43.73;39.02;54.57;;
37162;Laerm;68342;52.598;13.450;2023-10-19T05:21:34;42.86;39.00;53.98;;
37162;Laerm;68342;52.598;13.450;2023-10-19T05:24:00;44.90;39.87;54.46;;
37162;Laerm;68342;52.598;13.450;2023-10-19T05:26:25;42.55;38.43;51.13;;
37162;Laerm;68342;52.598;13.450;2023-10-19T05:28:51;43.76;38.44;52.87;;
37162;Laerm;68342;52.598;13.450;2023-10-19T05:31:16;44.87;39.17;56.78;;
37162;Laerm;68342;52.598;13.450;2023-10-19T05:33:41;43.51;39.46;52.59;;
37162;Laerm;68342;52.598;13.450;2023-10-19T05:36:07;42.32;38.47;54.22;;
37162;Laerm;68342;52.598;13.450;2023-10-19T05:38:32;42.94;37.83;50.77;;
37162;Laerm;68342;52.598;13.450;2023-10-19T05:40:58;43.91;38.12;55.71;;
37162;Laerm;68342;52.598;13.450;2023-10-19T05:43:24;43.46;38.73;53.04;;
37162;Laerm;68342;52.598;13.450;2023-10-19T05:45:50;44.11;39.31;55.39;;
37162;Laerm;68342;52.598;13.450;2023-10-19T05:48:15;43.62;39.34;50.61;;
37162;Laerm;68342;52.598;13.450;2023-10-19T05:50:40;45.41;39.94;54.22;;
37162;Laerm;68342;52.598;13.450;2023-10-19T05:53:07;44.27;39.88;59.65;;
37162;Laerm;68342;52.598;13.450;2023-10-19T05:55:33;44.35;40.01;52.37;;
37162;Laerm;68342;52.598;13.450;2023-10-19T05:58:00;45.19;40.31;55.81;;
37162;Laerm;68342;52.598;13.450;2023-10-19T06:00:26;44.78;40.80;52.02;;
37162;Laerm;68342;52.598;13.450;2023-10-19T06:02:51;45.51;40.34;61.38;;
37162;Laerm;68342;52.598;13.450;2023-10-19T06:05:17;43.55;38.69;51.52;;
37162;Laerm;68342;52.598;13.450;2023-10-19T06:07:44;43.11;39.73;55.71;;
37162;Laerm;68342;52.598;13.450;2023-10-19T06:10:19;44.88;38.68;58.97;;
37162;Laerm;68342;52.598;13.450;2023-10-19T06:12:46;46.00;39.46;64.19;;
37162;Laerm;68342;52.598;13.450;2023-10-19T06:15:12;45.89;39.28;61.50;;
37162;Laerm;68342;52.598;13.450;2023-10-19T06:17:38;44.80;40.69;55.64;;
37162;Laerm;68342;52.598;13.450;2023-10-19T06:20:04;45.05;39.71;56.62;;
37162;Laerm;68342;52.598;13.450;2023-10-19T06:22:30;45.28;41.13;58.56;;
37162;Laerm;68342;52.598;13.450;2023-10-19T06:24:55;45.78;41.30;61.52;;
37162;Laerm;68342;52.598;13.450;2023-10-19T06:27:20;46.34;40.80;57.38;;
37162;Laerm;68342;52.598;13.450;2023-10-19T06:29:46;46.81;40.44;57.44;;
37162;Laerm;68342;52.598;13.450;2023-10-19T06:32:11;49.45;45.20;65.06;;
37162;Laerm;68342;52.598;13.450;2023-10-19T06:34:38;47.54;43.95;58.45;;
37162;Laerm;68342;52.598;13.450;2023-10-19T06:37:03;46.24;42.36;57.16;;
37162;Laerm;68342;52.598;13.450;2023-10-19T06:41:59;44.87;39.34;59.66;;
37162;Laerm;68342;52.598;13.450;2023-10-19T06:44:25;45.67;40.05;61.79;;
37162;Laerm;68342;52.598;13.450;2023-10-19T06:46:50;44.12;39.82;54.40;;
37162;Laerm;68342;52.598;13.450;2023-10-19T06:49:15;44.74;40.26;58.84;;
37162;Laerm;68342;52.598;13.450;2023-10-19T06:51:41;44.11;39.63;52.11;;
37162;Laerm;68342;52.598;13.450;2023-10-19T06:54:06;44.37;40.28;57.76;;
37162;Laerm;68342;52.598;13.450;2023-10-19T06:56:33;46.56;39.71;57.59;;
37162;Laerm;68342;52.598;13.450;2023-10-19T06:59:01;45.31;40.25;58.88;;
37162;Laerm;68342;52.598;13.450;2023-10-19T07:01:32;43.40;38.77;58.24;;
37162;Laerm;68342;52.598;13.450;2023-10-19T07:03:57;44.39;40.10;55.18;;
37162;Laerm;68342;52.598;13.450;2023-10-19T07:06:23;46.11;40.24;64.75;;
37162;Laerm;68342;52.598;13.450;2023-10-19T07:08:49;51.15;39.89;68.99;;
37162;Laerm;68342;52.598;13.450;2023-10-19T07:11:14;46.87;40.03;60.14;;
37162;Laerm;68342;52.598;13.450;2023-10-19T07:13:39;46.53;40.73;59.82;;
37162;Laerm;68342;52.598;13.450;2023-10-19T07:16:05;45.93;40.00;59.40;;
37162;Laerm;68342;52.598;13.450;2023-10-19T07:18:30;47.39;39.70;63.51;;
37162;Laerm;68342;52.598;13.450;2023-10-19T07:20:56;47.77;40.14;64.94;;
37162;Laerm;68342;52.598;13.450;2023-10-19T07:23:28;47.42;39.91;61.93;;
37162;Laerm;68342;52.598;13.450;2023-10-19T07:25:53;45.03;40.44;58.16;;
37162;Laerm;68342;52.598;13.450;2023-10-19T07:28:25;47.34;39.85;62.05;;
37162;Laerm;68342;52.598;13.450;2023-10-19T07:30:51;46.87;41.10;58.07;;
37162;Laerm;68342;52.598;13.450;2023-10-19T07:33:16;46.63;39.56;62.30;;
37162;Laerm;68342;52.598;13.450;2023-10-19T07:35:42;43.35;39.14;55.30;;
37162;Laerm;68342;52.598;13.450;2023-10-19T07:38:09;44.52;39.56;57.62;;
37162;Laerm;68342;52.598;13.450;2023-10-19T07:40:34;45.97;39.46;65.95;;
37162;Laerm;68342;52.598;13.450;2023-10-19T07:43:00;44.54;38.90;65.29;;
37162;Laerm;68342;52.598;13.450;2023-10-19T07:45:25;46.09;38.91;61.96;;
37162;Laerm;68342;52.598;13.450;2023-10-19T07:47:50;45.61;39.42;64.49;;
37162;Laerm;68342;52.598;13.450;2023-10-19T07:50:16;45.36;40.07;65.55;;
37162;Laerm;68342;52.598;13.450;2023-10-19T07:52:49;46.05;38.87;67.11;;
37162;Laerm;68342;52.598;13.450;2023-10-19T07:55:15;44.90;38.25;61.63;;
37162;Laerm;68342;52.598;13.450;2023-10-19T07:57:40;43.51;37.47;54.54;;
37162;Laerm;68342;52.598;13.450;2023-10-19T08:00:06;44.36;38.65;61.13;;
37162;Laerm;68342;52.598;13.450;2023-10-19T08:02:33;43.29;37.93;58.10;;
37162;Laerm;68342;52.598;13.450;2023-10-19T08:05:00;43.39;38.94;58.66;;
37162;Laerm;68342;52.598;13.450;2023-10-19T08:07:26;44.54;40.19;56.78;;
37162;Laerm;68342;52.598;13.450;2023-10-19T08:09:53;45.15;39.83;52.50;;
37162;Laerm;68342;52.598;13.450;2023-10-19T08:12:19;44.57;38.06;58.11;;
37162;Laerm;68342;52.598;13.450;2023-10-19T08:14:45;42.27;37.86;55.56;;
37162;Laerm;68342;52.598;13.450;2023-10-19T08:17:12;42.90;38.24;49.82;;
37162;Laerm;68342;52.598;13.450;2023-10-19T08:19:43;48.40;38.52;60.87;;
37162;Laerm;68342;52.598;13.450;2023-10-19T08:22:15;43.12;37.89;58.92;;
37162;Laerm;68342;52.598;13.450;2023-10-19T08:24:42;45.51;38.56;57.28;;
37162;Laerm;68342;52.598;13.450;2023-10-19T08:27:20;44.34;37.99;58.04;;
37162;Laerm;68342;52.598;13.450;2023-10-19T08:29:49;43.67;39.48;53.48;;
37162;Laerm;68342;52.598;13.450;2023-10-19T08:32:15;43.27;38.29;65.22;;
37162;Laerm;68342;52.598;13.450;2023-10-19T08:34:41;42.97;37.97;58.97;;
37162;Laerm;68342;52.598;13.450;2023-10-19T08:37:06;42.27;37.74;52.56;;
37162;Laerm;68342;52.598;13.450;2023-10-19T08:39:32;42.89;38.13;51.25;;
37162;Laerm;68342;52.598;13.450;2023-10-19T08:42:04;43.98;38.22;54.64;;
37162;Laerm;68342;52.598;13.450;2023-10-19T08:44:30;42.83;37.34;53.99;;
37162;Laerm;68342;52.598;13.450;2023-10-19T08:46:57;45.50;39.08;57.42;;
37162;Laerm;68342;52.598;13.450;2023-10-19T08:49:24;47.68;38.59;61.05;;
37162;Laerm;68342;52.598;13.450;2023-10-19T08:51:51;42.93;38.75;53.66;;
37162;Laerm;68342;52.598;13.450;2023-10-19T08:54:17;42.43;37.95;51.49;;
37162;Laerm;68342;52.598;13.450;2023-10-19T08:56:42;42.23;38.13;51.94;;
37162;Laerm;68342;52.598;13.450;2023-10-19T08:59:09;43.01;37.31;52.14;;
37162;Laerm;68342;52.598;13.450;2023-10-19T09:01:36;42.83;37.44;51.86;;
37162;Laerm;68342;52.598;13.450;2023-10-19T09:04:02;42.76;37.94;58.47;;
37162;Laerm;68342;52.598;13.450;2023-10-19T09:06:27;42.04;36.46;53.94;;
37162;Laerm;68342;52.598;13.450;2023-10-19T09:08:54;42.25;36.88;52.74;;
37162;Laerm;68342;52.598;13.450;2023-10-19T09:11:19;43.22;37.33;63.37;;
37162;Laerm;68342;52.598;13.450;2023-10-19T09:13:46;46.20;37.27;59.89;;
37162;Laerm;68342;52.598;13.450;2023-10-19T09:16:17;48.32;37.41;64.21;;
37162;Laerm;68342;52.598;13.450;2023-10-19T09:18:44;47.10;36.50;62.75;;
37162;Laerm;68342;52.598;13.450;2023-10-19T09:21:46;45.43;37.58;60.63;;
37162;Laerm;68342;52.598;13.450;2023-10-19T09:24:19;43.75;37.18;63.09;;
37162;Laerm;68342;52.598;13.450;2023-10-19T09:26:45;44.88;36.69;60.79;;
37162;Laerm;68342;52.598;13.450;2023-10-19T09:29:11;41.65;35.85;61.50;;
37162;Laerm;68342;52.598;13.450;2023-10-19T09:31:37;45.76;36.82;66.09;;
37162;Laerm;68342;52.598;13.450;2023-10-19T09:34:03;43.91;36.75;62.26;;
37162;Laerm;68342;52.598;13.450;2023-10-19T09:36:30;44.62;36.84;65.07;;
37162;Laerm;68342;52.598;13.450;2023-10-19T09:38:56;42.00;36.91;54.76;;
37162;Laerm;68342;52.598;13.450;2023-10-19T09:41:23;42.77;36.78;60.59;;
37162;Laerm;68342;52.598;13.450;2023-10-19T09:43:53;42.49;37.03;51.99;;
37162;Laerm;68342;52.598;13.450;2023-10-19T09:46:25;45.12;37.79;65.45;;
37162;Laerm;68342;52.598;13.450;2023-10-19T09:48:51;42.01;36.73;58.46;;
37162;Laerm;68342;52.598;13.450;2023-10-19T09:51:17;44.10;37.17;59.74;;
37162;Laerm;68342;52.598;13.450;2023-10-19T09:53:45;42.05;37.37;55.68;;
37162;Laerm;68342;52.598;13.450;2023-10-19T09:56:17;43.19;37.15;52.10;;
37162;Laerm;68342;52.598;13.450;2023-10-19T09:58:45;47.47;38.07;62.28;;
37162;Laerm;68342;52.598;13.450;2023-10-19T10:01:11;47.99;39.16;62.51;;
37162;Laerm;68342;52.598;13.450;2023-10-19T10:03:47;44.78;37.60;58.81;;
37162;Laerm;68342;52.598;13.450;2023-10-19T10:06:16;43.84;37.61;53.07;;
37162;Laerm;68342;52.598;13.450;2023-10-19T10:08:45;41.69;37.44;53.21;;
37162;Laerm;68342;52.598;13.450;2023-10-19T10:11:18;46.18;37.72;67.10;;
37162;Laerm;68342;52.598;13.450;2023-10-19T10:13:44;43.11;38.90;57.36;;
37162;Laerm;68342;52.598;13.450;2023-10-19T10:16:12;42.81;37.45;56.27;;
37162;Laerm;68342;52.598;13.450;2023-10-19T10:18:37;41.91;36.93;52.09;;
37162;Laerm;68342;52.598;13.450;2023-10-19T10:21:19;42.13;36.63;50.58;;
37162;Laerm;68342;52.598;13.450;2023-10-19T10:23:52;41.53;36.37;60.14;;
37162;Laerm;68342;52.598;13.450;2023-10-19T10:26:18;42.50;36.51;55.67;;
37162;Laerm;68342;52.598;13.450;2023-10-19T10:31:33;43.94;39.23;55.08;;
37162;Laerm;68342;52.598;13.450;2023-10-19T10:34:01;43.30;37.32;51.90;;
37162;Laerm;68342;52.598;13.450;2023-10-19T10:36:27;44.33;36.85;56.86;;
37162;Laerm;68342;52.598;13.450;2023-10-19T10:39:12;43.45;37.92;51.32;;
37162;Laerm;68342;52.598;13.450;2023-10-19T10:41:41;43.99;38.59;53.47;;
37162;Laerm;68342;52.598;13.450;2023-10-19T10:44:07;45.38;39.17;54.32;;
37162;Laerm;68342;52.598;13.450;2023-10-19T10:46:32;45.05;39.38;58.25;;
37162;Laerm;68342;52.598;13.450;2023-10-19T10:48:57;44.86;38.82;58.33;;
37162;Laerm;68342;52.598;13.450;2023-10-19T10:51:25;44.50;39.27;60.98;;
37162;Laerm;68342;52.598;13.450;2023-10-19T10:53:54;44.95;39.25;60.31;;
37162;Laerm;68342;52.598;13.450;2023-10-19T10:56:20;44.40;38.25;60.84;;
37162;Laerm;68342;52.598;13.450;2023-10-19T10:58:46;44.73;38.72;59.88;;
37162;Laerm;68342;52.598;13.450;2023-10-19T11:01:12;44.40;38.70;59.06;;
37162;Laerm;68342;52.598;13.450;2023-10-19T11:03:38;42.03;36.12;53.83;;
37162;Laerm;68342;52.598;13.450;2023-10-19T11:06:06;45.42;37.73;62.34;;
37162;Laerm;68342;52.598;13.450;2023-10-19T11:08:35;44.42;37.53;57.42;;
37162;Laerm;68342;52.598;13.450;2023-10-19T11:11:01;45.87;38.26;61.53;;
37162;Laerm;68342;52.598;13.450;2023-10-19T11:13:27;44.62;36.60;57.94;;
37162;Laerm;68342;52.598;13.450;2023-10-19T11:15:55;45.48;38.65;66.44;;
37162;Laerm;68342;52.598;13.450;2023-10-19T11:18:40;43.50;37.96;53.09;;
37162;Laerm;68342;52.598;13.450;2023-10-19T11:21:06;43.75;37.43;65.05;;
37162;Laerm;68342;52.598;13.450;2023-10-19T11:23:41;44.95;38.10;52.56;;
37162;Laerm;68342;52.598;13.450;2023-10-19T11:26:11;43.70;38.79;51.11;;
37162;Laerm;68342;52.598;13.450;2023-10-19T11:29:06;43.36;37.74;55.90;;
37162;Laerm;68342;52.598;13.450;2023-10-19T11:32:13;44.09;37.96;56.42;;
37162;Laerm;68342;52.598;13.450;2023-10-19T11:34:48;42.55;37.13;55.85;;
37162;Laerm;68342;52.598;13.450;2023-10-19T11:37:28;41.87;37.55;51.89;;
37162;Laerm;68342;52.598;13.450;2023-10-19T11:40:05;43.50;39.05;56.11;;
37162;Laerm;68342;52.598;13.450;2023-10-19T11:42:59;42.97;37.40;59.97;;
37162;Laerm;68342;52.598;13.450;2023-10-19T11:46:14;43.14;37.77;54.04;;
37162;Laerm;68342;52.598;13.450;2023-10-19T11:49:33;44.84;37.89;66.85;;
37162;Laerm;68342;52.598;13.450;2023-10-19T11:52:05;42.27;37.41;54.20;;
37162;Laerm;68342;52.598;13.450;2023-10-19T11:54:53;41.97;37.43;58.85;;
37162;Laerm;68342;52.598;13.450;2023-10-19T11:57:23;42.87;37.91;59.86;;
37162;Laerm;68342;52.598;13.450;2023-10-19T11:59:50;42.47;37.04;55.03;;
37162;Laerm;68342;52.598;13.450;2023-10-19T12:02:20;41.27;37.03;55.77;;
37162;Laerm;68342;52.598;13.450;2023-10-19T12:04:46;43.67;37.87;63.41;;
37162;Laerm;68342;52.598;13.450;2023-10-19T12:07:11;42.66;37.94;55.19;;
37162;Laerm;68342;52.598;13.450;2023-10-19T12:09:36;43.66;37.76;57.65;;
37162;Laerm;68342;52.598;13.450;2023-10-19T12:12:02;42.85;37.99;55.19;;
37162;Laerm;68342;52.598;13.450;2023-10-19T12:14:31;43.23;38.85;55.18;;
37162;Laerm;68342;52.598;13.450;2023-10-19T12:16:58;44.80;39.88;52.45;;
37162;Laerm;68342;52.598;13.450;2023-10-19T12:19:32;43.52;39.69;52.82;;
37162;Laerm;68342;52.598;13.450;2023-10-19T12:22:11;43.58;39.21;56.86;;
37162;Laerm;68342;52.598;13.450;2023-10-19T12:24:43;43.99;38.60;64.92;;
37162;Laerm;68342;52.598;13.450;2023-10-19T12:27:10;45.26;38.96;62.32;;
37162;Laerm;68342;52.598;13.450;2023-10-19T12:29:39;46.63;37.16;62.30;;
37162;Laerm;68342;52.598;13.450;2023-10-19T12:32:05;45.17;36.47;60.34;;
37162;Laerm;68342;52.598;13.450;2023-10-19T12:34:34;46.28;36.93;60.30;;
37162;Laerm;68342;52.598;13.450;2023-10-19T12:36:59;49.13;36.79;68.26;;
37162;Laerm;68342;52.598;13.450;2023-10-19T12:39:27;42.71;36.94;57.12;;
37162;Laerm;68342;52.598;13.450;2023-10-19T12:42:10;44.28;37.36;62.89;;
37162;Laerm;68342;52.598;13.450;2023-10-19T12:44:35;42.08;37.61;57.10;;
37162;Laerm;68342;52.598;13.450;2023-10-19T12:47:06;42.82;37.32;58.51;;
37162;Laerm;68342;52.598;13.450;2023-10-19T12:49:38;42.54;37.43;62.18;;
37162;Laerm;68342;52.598;13.450;2023-10-19T12:52:04;43.20;37.94;60.61;;
37162;Laerm;68342;52.598;13.450;2023-10-19T12:54:32;43.59;38.99;54.71;;
37162;Laerm;68342;52.598;13.450;2023-10-19T12:56:57;43.86;37.50;53.84;;
37162;Laerm;68342;52.598;13.450;2023-10-19T12:59:22;43.87;39.66;50.52;;
37162;Laerm;68342;52.598;13.450;2023-10-19T13:01:48;44.04;39.59;54.18;;
37162;Laerm;68342;52.598;13.450;2023-10-19T13:04:15;42.87;38.33;52.59;;
37162;Laerm;68342;52.598;13.450;2023-10-19T13:06:44;43.00;37.96;53.51;;
37162;Laerm;68342;52.598;13.450;2023-10-19T13:09:12;41.79;37.80;52.38;;
37162;Laerm;68342;52.598;13.450;2023-10-19T13:11:39;41.70;37.95;53.11;;
37162;Laerm;68342;52.598;13.450;2023-10-19T13:14:08;42.01;37.43;54.76;;
37162;Laerm;68342;52.598;13.450;2023-10-19T13:16:34;43.66;38.11;54.02;;
37162;Laerm;68342;52.598;13.450;2023-10-19T13:19:00;41.68;37.80;50.86;;
37162;Laerm;68342;52.598;13.450;2023-10-19T13:21:33;42.81;37.54;51.61;;
37162;Laerm;68342;52.598;13.450;2023-10-19T13:23:59;42.18;38.39;51.00;;
37162;Laerm;68342;52.598;13.450;2023-10-19T13:26:24;42.35;38.30;57.94;;
37162;Laerm;68342;52.598;13.450;2023-10-19T13:28:50;43.08;38.93;59.55;;
37162;Laerm;68342;52.598;13.450;2023-10-19T13:31:17;43.69;38.16;53.36;;
37162;Laerm;68342;52.598;13.450;2023-10-19T13:33:44;42.45;37.50;57.99;;
37162;Laerm;68342;52.598;13.450;2023-10-19T13:36:11;43.08;37.37;60.19;;
37162;Laerm;68342;52.598;13.450;2023-10-19T13:38:41;41.77;37.63;54.11;;
37162;Laerm;68342;52.598;13.450;2023-10-19T13:41:08;42.22;37.86;52.30;;
37162;Laerm;68342;52.598;13.450;2023-10-19T13:43:37;43.80;38.06;55.25;;
37162;Laerm;68342;52.598;13.450;2023-10-19T13:46:02;43.51;38.61;54.14;;
37162;Laerm;68342;52.598;13.450;2023-10-19T13:48:31;42.41;37.34;58.40;;
37162;Laerm;68342;52.598;13.450;2023-10-19T13:51:05;47.47;38.03;63.25;;
37162;Laerm;68342;52.598;13.450;2023-10-19T13:53:41;43.51;38.11;56.47;;
37162;Laerm;68342;52.598;13.450;2023-10-19T13:56:08;45.42;39.09;62.89;;
37162;Laerm;68342;52.598;13.450;2023-10-19T13:58:35;45.36;37.58;54.88;;
37162;Laerm;68342;52.598;13.450;2023-10-19T14:01:07;42.66;38.31;50.75;;
37162;Laerm;68342;52.598;13.450;2023-10-19T14:03:37;42.75;38.14;53.72;;
37162;Laerm;68342;52.598;13.450;2023-10-19T14:06:05;42.49;37.74;49.66;;
37162;Laerm;68342;52.598;13.450;2023-10-19T14:08:37;44.33;37.89;58.06;;
37162;Laerm;68342;52.598;13.450;2023-10-19T14:11:02;43.83;39.21;53.67;;
37162;Laerm;68342;52.598;13.450;2023-10-19T14:13:28;43.08;38.01;56.50;;
37162;Laerm;68342;52.598;13.450;2023-10-19T14:15:54;43.52;38.34;54.04;;
37162;Laerm;68342;52.598;13.450;2023-10-19T14:18:19;43.61;38.61;52.75;;
37162;Laerm;68342;52.598;13.450;2023-10-19T14:20:45;44.46;38.12;53.95;;
37162;Laerm;68342;52.598;13.450;2023-10-19T14:23:10;43.44;38.33;57.19;;
37162;Laerm;68342;52.598;13.450;2023-10-19T14:25:36;44.93;37.78;55.36;;
37162;Laerm;68342;52.598;13.450;2023-10-19T14:28:02;45.26;39.50;56.78;;
37162;Laerm;68342;52.598;13.450;2023-10-19T14:30:31;43.49;38.69;54.49;;
37162;Laerm;68342;52.598;13.450;2023-10-19T14:32:57;42.30;37.86;52.31;;